Anangel Glory — SVBK7 — position and weather

sailwx.info

Track history (hours):
 
Tides and Currents Weather Stations Pressure Air Temp Water Temp Dewpoint Dewpoint Depression Visibility Wind Speed Wind Dir Waves Ship Positions

Anangel Glory

Last reported at 2018-Mar-25 01:48 UTC. Time now 2018-Apr-25 16:36 UTC.
Position S 32°10' E 033°02'.
Warning: this ship's position is 31 days out of date.

Length 292 m; draft 9.2 m.

Type: Cargo ship. MMSI: 241149000.

Date/timePositionNaut miles runAvg speedWind from/ knotsBaromVisibWave heightAir tempDewpointWater temp
2018-Mar-25 01:48S 32°10' E 033°02'412.2
2018-Mar-25 01:30S 32°09' E 033°06'912.3
2018-Mar-25 00:45S 32°05' E 033°16'812.5
2018-Mar-25 00:07S 32°02' E 033°24'312.5
2018-Mar-24 23:53S 32°01' E 033°27'512.3
2018-Mar-24 23:30S 31°59' E 033°32'612.3
2018-Mar-24 23:00S 31°56' E 033°39'612.3
2018-Mar-24 22:30S 31°53' E 033°45'612.1
2018-Mar-24 22:00S 31°51' E 033°52'612.1
2018-Mar-24 21:30S 31°48' E 033°58'611.9
2018-Mar-24 21:00S 31°46' E 034°05'1511.7
2018-Mar-24 19:44S 31°39' E 034°20'311.7
2018-Mar-24 19:30S 31°38' E 034°23'  
Track history (hours):
 
Tides and Currents Weather Stations Pressure Air Temp Water Temp Dewpoint Dewpoint Depression Visibility Wind Speed Wind Dir Waves Ship Positions

Anangel Glory

Last reported at 2018-Mar-25 01:48 UTC. Time now 2018-Apr-25 16:36 UTC.
Position S 32°10' E 033°02'.
Warning: this ship's position is 31 days out of date.

Length 292 m; draft 9.2 m.

Type: Cargo ship. MMSI: 241149000.

Date/timePositionNaut miles runAvg speedWind from/ knotsBaromVisibWave heightAir tempDewpointWater temp
2018-Mar-25 01:48S 32°10' E 033°02'412.2
2018-Mar-25 01:30S 32°09' E 033°06'912.3
2018-Mar-25 00:45S 32°05' E 033°16'812.5
2018-Mar-25 00:07S 32°02' E 033°24'312.5
2018-Mar-24 23:53S 32°01' E 033°27'512.3
2018-Mar-24 23:30S 31°59' E 033°32'612.3
2018-Mar-24 23:00S 31°56' E 033°39'612.3
2018-Mar-24 22:30S 31°53' E 033°45'612.1
2018-Mar-24 22:00S 31°51' E 033°52'612.1
2018-Mar-24 21:30S 31°48' E 033°58'611.9
2018-Mar-24 21:00S 31°46' E 034°05'1511.7
2018-Mar-24 19:44S 31°39' E 034°20'311.7
2018-Mar-24 19:30S 31°38' E 034°23'  

Dump ship's entire track history